sensor_id;sensor_type;location;lat;lon;timestamp;P1;durP1;ratioP1;P2;durP2;ratioP2
71610;SDS011;59459;51.172;6.682;2022-09-13T00:00:18;7.40;;;3.03;;
71610;SDS011;59459;51.172;6.682;2022-09-13T00:02:43;12.27;;;3.67;;
71610;SDS011;59459;51.172;6.682;2022-09-13T00:05:09;7.53;;;3.37;;
71610;SDS011;59459;51.172;6.682;2022-09-13T00:07:34;7.80;;;3.30;;
71610;SDS011;59459;51.172;6.682;2022-09-13T00:09:59;7.83;;;2.90;;
71610;SDS011;59459;51.172;6.682;2022-09-13T00:12:24;6.67;;;3.00;;
71610;SDS011;59459;51.172;6.682;2022-09-13T00:14:50;7.47;;;2.93;;
71610;SDS011;59459;51.172;6.682;2022-09-13T00:17:15;9.10;;;3.50;;
71610;SDS011;59459;51.172;6.682;2022-09-13T00:19:40;7.00;;;2.73;;
71610;SDS011;59459;51.172;6.682;2022-09-13T00:22:06;7.13;;;3.30;;
71610;SDS011;59459;51.172;6.682;2022-09-13T00:24:32;7.38;;;3.10;;
71610;SDS011;59459;51.172;6.682;2022-09-13T00:27:04;6.97;;;2.97;;
71610;SDS011;59459;51.172;6.682;2022-09-13T00:29:29;6.87;;;2.97;;
71610;SDS011;59459;51.172;6.682;2022-09-13T00:31:55;8.23;;;2.87;;
71610;SDS011;59459;51.172;6.682;2022-09-13T00:34:20;7.03;;;2.83;;
71610;SDS011;59459;51.172;6.682;2022-09-13T00:36:45;6.40;;;2.87;;
71610;SDS011;59459;51.172;6.682;2022-09-13T00:39:10;6.90;;;3.13;;
71610;SDS011;59459;51.172;6.682;2022-09-13T00:41:36;8.97;;;2.97;;
71610;SDS011;59459;51.172;6.682;2022-09-13T00:44:02;5.82;;;2.90;;
71610;SDS011;59459;51.172;6.682;2022-09-13T00:46:38;7.22;;;3.10;;
71610;SDS011;59459;51.172;6.682;2022-09-13T00:49:15;6.93;;;2.97;;
71610;SDS011;59459;51.172;6.682;2022-09-13T00:51:43;5.00;;;2.70;;
71610;SDS011;59459;51.172;6.682;2022-09-13T00:54:09;7.85;;;3.35;;
71610;SDS011;59459;51.172;6.682;2022-09-13T00:56:36;8.18;;;2.72;;
71610;SDS011;59459;51.172;6.682;2022-09-13T00:59:12;7.53;;;3.23;;
71610;SDS011;59459;51.172;6.682;2022-09-13T01:01:40;7.20;;;3.10;;
71610;SDS011;59459;51.172;6.682;2022-09-13T01:04:07;5.63;;;2.63;;
71610;SDS011;59459;51.172;6.682;2022-09-13T01:06:33;6.70;;;2.93;;
71610;SDS011;59459;51.172;6.682;2022-09-13T01:09:00;7.05;;;3.20;;
71610;SDS011;59459;51.172;6.682;2022-09-13T01:11:37;6.82;;;2.80;;
71610;SDS011;59459;51.172;6.682;2022-09-13T01:14:05;6.75;;;2.97;;
71610;SDS011;59459;51.172;6.682;2022-09-13T01:16:31;6.13;;;2.80;;
71610;SDS011;59459;51.172;6.682;2022-09-13T01:18:56;8.47;;;2.80;;
71610;SDS011;59459;51.172;6.682;2022-09-13T01:27:39;7.80;;;2.97;;
71610;SDS011;59459;51.172;6.682;2022-09-13T01:34:59;9.10;;;3.15;;
71610;SDS011;59459;51.172;6.682;2022-09-13T01:48:08;8.18;;;3.00;;
71610;SDS011;59459;51.172;6.682;2022-09-13T01:50:39;6.30;;;2.70;;
71610;SDS011;59459;51.172;6.682;2022-09-13T01:53:28;6.22;;;3.03;;
71610;SDS011;59459;51.172;6.682;2022-09-13T01:55:59;7.00;;;2.90;;
71610;SDS011;59459;51.172;6.682;2022-09-13T01:58:27;7.80;;;3.00;;
71610;SDS011;59459;51.172;6.682;2022-09-13T02:01:03;8.60;;;3.05;;
71610;SDS011;59459;51.172;6.682;2022-09-13T02:03:37;7.27;;;3.10;;
71610;SDS011;59459;51.172;6.682;2022-09-13T02:06:08;5.95;;;2.72;;
71610;SDS011;59459;51.172;6.682;2022-09-13T02:08:54;7.18;;;2.85;;
71610;SDS011;59459;51.172;6.682;2022-09-13T02:11:20;8.70;;;3.22;;
71610;SDS011;59459;51.172;6.682;2022-09-13T02:13:56;6.33;;;3.10;;
71610;SDS011;59459;51.172;6.682;2022-09-13T02:16:37;9.02;;;2.90;;
71610;SDS011;59459;51.172;6.682;2022-09-13T02:19:07;8.73;;;2.60;;
71610;SDS011;59459;51.172;6.682;2022-09-13T02:21:35;7.43;;;3.03;;
71610;SDS011;59459;51.172;6.682;2022-09-13T02:24:06;7.43;;;3.33;;
71610;SDS011;59459;51.172;6.682;2022-09-13T02:26:32;8.25;;;3.17;;
71610;SDS011;59459;51.172;6.682;2022-09-13T02:28:59;8.68;;;3.40;;
71610;SDS011;59459;51.172;6.682;2022-09-13T02:31:37;6.68;;;3.40;;
71610;SDS011;59459;51.172;6.682;2022-09-13T02:34:05;8.13;;;3.28;;
71610;SDS011;59459;51.172;6.682;2022-09-13T02:36:33;7.47;;;3.00;;
71610;SDS011;59459;51.172;6.682;2022-09-13T02:38:59;7.72;;;2.80;;
71610;SDS011;59459;51.172;6.682;2022-09-13T02:41:32;8.07;;;2.95;;
71610;SDS011;59459;51.172;6.682;2022-09-13T02:44:02;9.20;;;2.88;;
71610;SDS011;59459;51.172;6.682;2022-09-13T02:49:10;8.53;;;3.50;;
71610;SDS011;59459;51.172;6.682;2022-09-13T02:54:11;7.93;;;3.17;;
71610;SDS011;59459;51.172;6.682;2022-09-13T02:59:17;6.60;;;2.90;;
71610;SDS011;59459;51.172;6.682;2022-09-13T03:01:48;6.22;;;2.72;;
71610;SDS011;59459;51.172;6.682;2022-09-13T03:04:14;7.30;;;3.25;;
71610;SDS011;59459;51.172;6.682;2022-09-13T03:06:40;7.93;;;3.50;;
71610;SDS011;59459;51.172;6.682;2022-09-13T03:09:06;6.32;;;3.20;;
71610;SDS011;59459;51.172;6.682;2022-09-13T03:24:34;7.32;;;3.30;;
71610;SDS011;59459;51.172;6.682;2022-09-13T03:29:34;7.10;;;2.70;;
71610;SDS011;59459;51.172;6.682;2022-09-13T03:32:45;7.03;;;3.33;;
71610;SDS011;59459;51.172;6.682;2022-09-13T03:35:13;6.68;;;3.05;;
71610;SDS011;59459;51.172;6.682;2022-09-13T03:38:24;7.10;;;3.40;;
71610;SDS011;59459;51.172;6.682;2022-09-13T03:40:33;6.90;;;2.95;;
71610;SDS011;59459;51.172;6.682;2022-09-13T03:43:00;10.83;;;3.67;;
71610;SDS011;59459;51.172;6.682;2022-09-13T03:45:28;6.43;;;2.83;;
71610;SDS011;59459;51.172;6.682;2022-09-13T03:47:55;10.68;;;4.13;;
71610;SDS011;59459;51.172;6.682;2022-09-13T03:50:21;7.47;;;3.50;;
71610;SDS011;59459;51.172;6.682;2022-09-13T03:52:49;8.47;;;3.13;;
71610;SDS011;59459;51.172;6.682;2022-09-13T03:55:17;7.43;;;3.50;;
71610;SDS011;59459;51.172;6.682;2022-09-13T03:57:42;7.72;;;3.78;;
71610;SDS011;59459;51.172;6.682;2022-09-13T04:00:08;6.17;;;3.13;;
71610;SDS011;59459;51.172;6.682;2022-09-13T04:02:33;6.50;;;3.28;;
71610;SDS011;59459;51.172;6.682;2022-09-13T04:04:59;8.17;;;3.27;;
71610;SDS011;59459;51.172;6.682;2022-09-13T04:07:24;7.77;;;3.70;;
71610;SDS011;59459;51.172;6.682;2022-09-13T04:09:49;6.77;;;3.40;;
71610;SDS011;59459;51.172;6.682;2022-09-13T04:12:15;7.63;;;3.73;;
71610;SDS011;59459;51.172;6.682;2022-09-13T04:14:41;7.75;;;3.22;;
71610;SDS011;59459;51.172;6.682;2022-09-13T04:17:07;7.05;;;3.40;;
71610;SDS011;59459;51.172;6.682;2022-09-13T04:19:33;7.50;;;3.47;;
71610;SDS011;59459;51.172;6.682;2022-09-13T04:21:58;9.93;;;3.20;;
71610;SDS011;59459;51.172;6.682;2022-09-13T04:24:25;6.40;;;3.10;;
71610;SDS011;59459;51.172;6.682;2022-09-13T04:26:50;7.57;;;3.50;;
71610;SDS011;59459;51.172;6.682;2022-09-13T04:29:17;8.60;;;3.88;;
71610;SDS011;59459;51.172;6.682;2022-09-13T04:31:43;8.70;;;3.67;;
71610;SDS011;59459;51.172;6.682;2022-09-13T04:34:08;7.70;;;3.30;;
71610;SDS011;59459;51.172;6.682;2022-09-13T04:36:33;7.40;;;3.43;;
71610;SDS011;59459;51.172;6.682;2022-09-13T04:38:58;9.13;;;3.65;;
71610;SDS011;59459;51.172;6.682;2022-09-13T04:41:24;8.60;;;3.50;;
71610;SDS011;59459;51.172;6.682;2022-09-13T04:43:49;7.20;;;3.33;;
71610;SDS011;59459;51.172;6.682;2022-09-13T04:46:15;6.90;;;3.43;;
71610;SDS011;59459;51.172;6.682;2022-09-13T04:48:40;7.50;;;3.40;;
71610;SDS011;59459;51.172;6.682;2022-09-13T04:51:06;8.00;;;3.25;;
71610;SDS011;59459;51.172;6.682;2022-09-13T04:53:31;8.63;;;3.47;;
71610;SDS011;59459;51.172;6.682;2022-09-13T04:56:02;8.57;;;3.33;;
71610;SDS011;59459;51.172;6.682;2022-09-13T04:58:28;8.60;;;3.60;;
71610;SDS011;59459;51.172;6.682;2022-09-13T05:00:59;7.27;;;3.37;;
71610;SDS011;59459;51.172;6.682;2022-09-13T05:03:24;8.48;;;3.50;;
71610;SDS011;59459;51.172;6.682;2022-09-13T05:05:49;7.07;;;3.50;;
71610;SDS011;59459;51.172;6.682;2022-09-13T05:08:17;9.83;;;3.87;;
71610;SDS011;59459;51.172;6.682;2022-09-13T05:10:42;10.38;;;4.00;;
71610;SDS011;59459;51.172;6.682;2022-09-13T05:13:10;7.33;;;3.57;;
71610;SDS011;59459;51.172;6.682;2022-09-13T05:15:35;8.83;;;4.00;;
71610;SDS011;59459;51.172;6.682;2022-09-13T05:18:00;7.43;;;3.80;;
71610;SDS011;59459;51.172;6.682;2022-09-13T05:20:26;9.47;;;3.90;;
71610;SDS011;59459;51.172;6.682;2022-09-13T05:22:51;8.93;;;3.83;;
71610;SDS011;59459;51.172;6.682;2022-09-13T05:25:16;8.90;;;4.47;;
71610;SDS011;59459;51.172;6.682;2022-09-13T05:27:41;8.70;;;3.97;;
71610;SDS011;59459;51.172;6.682;2022-09-13T05:30:09;10.17;;;4.30;;
71610;SDS011;59459;51.172;6.682;2022-09-13T05:32:34;13.07;;;4.13;;
71610;SDS011;59459;51.172;6.682;2022-09-13T05:34:59;9.07;;;4.20;;
71610;SDS011;59459;51.172;6.682;2022-09-13T05:37:24;8.37;;;4.00;;
71610;SDS011;59459;51.172;6.682;2022-09-13T05:39:50;10.67;;;4.77;;
71610;SDS011;59459;51.172;6.682;2022-09-13T05:42:15;9.57;;;4.07;;
71610;SDS011;59459;51.172;6.682;2022-09-13T05:44:40;9.10;;;4.47;;
71610;SDS011;59459;51.172;6.682;2022-09-13T05:47:05;9.50;;;4.03;;
71610;SDS011;59459;51.172;6.682;2022-09-13T05:49:30;10.77;;;4.43;;
71610;SDS011;59459;51.172;6.682;2022-09-13T05:51:56;9.23;;;4.77;;
71610;SDS011;59459;51.172;6.682;2022-09-13T05:54:21;11.53;;;4.90;;
71610;SDS011;59459;51.172;6.682;2022-09-13T05:56:46;11.73;;;5.20;;
71610;SDS011;59459;51.172;6.682;2022-09-13T05:59:12;10.30;;;4.30;;
71610;SDS011;59459;51.172;6.682;2022-09-13T06:01:38;9.30;;;5.00;;
71610;SDS011;59459;51.172;6.682;2022-09-13T06:04:03;9.30;;;4.53;;
71610;SDS011;59459;51.172;6.682;2022-09-13T06:06:28;11.37;;;4.73;;
71610;SDS011;59459;51.172;6.682;2022-09-13T06:08:54;11.97;;;5.10;;
71610;SDS011;59459;51.172;6.682;2022-09-13T06:11:20;11.43;;;4.80;;
71610;SDS011;59459;51.172;6.682;2022-09-13T06:13:45;11.43;;;4.40;;
71610;SDS011;59459;51.172;6.682;2022-09-13T06:16:11;10.07;;;4.37;;
71610;SDS011;59459;51.172;6.682;2022-09-13T06:18:36;9.25;;;4.15;;
71610;SDS011;59459;51.172;6.682;2022-09-13T06:21:03;11.67;;;4.43;;
71610;SDS011;59459;51.172;6.682;2022-09-13T06:23:28;9.55;;;4.57;;
71610;SDS011;59459;51.172;6.682;2022-09-13T06:26:01;12.05;;;4.72;;
71610;SDS011;59459;51.172;6.682;2022-09-13T06:28:26;9.53;;;4.37;;
71610;SDS011;59459;51.172;6.682;2022-09-13T06:30:51;9.23;;;4.67;;
71610;SDS011;59459;51.172;6.682;2022-09-13T06:33:16;9.27;;;4.40;;
71610;SDS011;59459;51.172;6.682;2022-09-13T06:35:42;9.57;;;4.07;;
71610;SDS011;59459;51.172;6.682;2022-09-13T06:38:07;9.50;;;4.60;;
71610;SDS011;59459;51.172;6.682;2022-09-13T06:40:32;10.83;;;4.57;;
71610;SDS011;59459;51.172;6.682;2022-09-13T06:42:57;10.20;;;4.27;;
71610;SDS011;59459;51.172;6.682;2022-09-13T06:45:22;9.60;;;4.17;;
71610;SDS011;59459;51.172;6.682;2022-09-13T06:47:48;9.63;;;3.77;;
71610;SDS011;59459;51.172;6.682;2022-09-13T06:50:13;9.37;;;4.00;;
71610;SDS011;59459;51.172;6.682;2022-09-13T06:52:38;8.88;;;3.67;;
71610;SDS011;59459;51.172;6.682;2022-09-13T06:55:03;7.67;;;3.97;;
71610;SDS011;59459;51.172;6.682;2022-09-13T06:57:29;8.23;;;4.10;;
71610;SDS011;59459;51.172;6.682;2022-09-13T06:59:54;8.33;;;3.97;;
71610;SDS011;59459;51.172;6.682;2022-09-13T07:02:19;8.87;;;3.97;;
71610;SDS011;59459;51.172;6.682;2022-09-13T07:04:44;8.97;;;4.13;;
71610;SDS011;59459;51.172;6.682;2022-09-13T07:07:10;9.97;;;4.07;;
71610;SDS011;59459;51.172;6.682;2022-09-13T07:09:35;9.23;;;3.93;;
71610;SDS011;59459;51.172;6.682;2022-09-13T07:12:00;10.13;;;4.40;;
71610;SDS011;59459;51.172;6.682;2022-09-13T07:14:26;8.77;;;4.70;;
71610;SDS011;59459;51.172;6.682;2022-09-13T07:16:52;9.57;;;4.30;;
71610;SDS011;59459;51.172;6.682;2022-09-13T07:19:18;8.97;;;4.60;;
71610;SDS011;59459;51.172;6.682;2022-09-13T07:21:44;9.45;;;4.40;;
71610;SDS011;59459;51.172;6.682;2022-09-13T07:24:09;10.20;;;4.72;;
71610;SDS011;59459;51.172;6.682;2022-09-13T07:26:35;11.63;;;4.57;;
71610;SDS011;59459;51.172;6.682;2022-09-13T07:29:02;8.95;;;4.80;;
71610;SDS011;59459;51.172;6.682;2022-09-13T07:31:34;10.13;;;4.77;;
71610;SDS011;59459;51.172;6.682;2022-09-13T07:34:01;9.52;;;4.72;;
71610;SDS011;59459;51.172;6.682;2022-09-13T07:36:28;11.18;;;4.60;;
71610;SDS011;59459;51.172;6.682;2022-09-13T07:38:53;12.80;;;4.30;;
71610;SDS011;59459;51.172;6.682;2022-09-13T07:41:19;8.53;;;3.80;;
71610;SDS011;59459;51.172;6.682;2022-09-13T07:43:45;7.53;;;3.80;;
71610;SDS011;59459;51.172;6.682;2022-09-13T07:46:14;8.13;;;4.07;;
71610;SDS011;59459;51.172;6.682;2022-09-13T07:48:40;11.23;;;3.70;;
71610;SDS011;59459;51.172;6.682;2022-09-13T07:51:16;9.43;;;4.47;;
71610;SDS011;59459;51.172;6.682;2022-09-13T07:53:42;11.70;;;4.70;;
71610;SDS011;59459;51.172;6.682;2022-09-13T07:58:33;8.10;;;4.30;;
71610;SDS011;59459;51.172;6.682;2022-09-13T08:01:00;12.13;;;4.68;;
71610;SDS011;59459;51.172;6.682;2022-09-13T08:03:27;10.20;;;4.72;;
71610;SDS011;59459;51.172;6.682;2022-09-13T08:05:54;8.67;;;4.63;;
71610;SDS011;59459;51.172;6.682;2022-09-13T08:08:19;10.07;;;4.17;;
71610;SDS011;59459;51.172;6.682;2022-09-13T08:10:44;9.47;;;4.33;;
71610;SDS011;59459;51.172;6.682;2022-09-13T08:13:09;10.43;;;4.50;;
71610;SDS011;59459;51.172;6.682;2022-09-13T08:15:34;8.83;;;4.33;;
71610;SDS011;59459;51.172;6.682;2022-09-13T08:18:00;9.33;;;5.03;;
71610;SDS011;59459;51.172;6.682;2022-09-13T08:20:25;7.37;;;4.17;;
71610;SDS011;59459;51.172;6.682;2022-09-13T08:22:50;9.75;;;4.18;;
71610;SDS011;59459;51.172;6.682;2022-09-13T08:25:15;8.47;;;3.97;;
71610;SDS011;59459;51.172;6.682;2022-09-13T08:27:41;8.97;;;4.20;;
71610;SDS011;59459;51.172;6.682;2022-09-13T08:30:06;9.43;;;4.00;;
71610;SDS011;59459;51.172;6.682;2022-09-13T08:32:31;10.03;;;3.87;;
71610;SDS011;59459;51.172;6.682;2022-09-13T08:34:57;8.37;;;3.70;;
71610;SDS011;59459;51.172;6.682;2022-09-13T08:37:22;8.20;;;3.93;;
71610;SDS011;59459;51.172;6.682;2022-09-13T08:39:47;11.27;;;3.80;;
71610;SDS011;59459;51.172;6.682;2022-09-13T08:42:31;8.33;;;3.90;;
71610;SDS011;59459;51.172;6.682;2022-09-13T08:44:58;9.17;;;3.70;;
71610;SDS011;59459;51.172;6.682;2022-09-13T08:47:32;8.60;;;3.83;;
71610;SDS011;59459;51.172;6.682;2022-09-13T08:50:00;8.18;;;4.05;;
71610;SDS011;59459;51.172;6.682;2022-09-13T08:55:35;8.43;;;3.90;;
71610;SDS011;59459;51.172;6.682;2022-09-13T09:00:26;9.05;;;3.55;;
71610;SDS011;59459;51.172;6.682;2022-09-13T09:03:02;10.30;;;4.33;;
71610;SDS011;59459;51.172;6.682;2022-09-13T09:05:30;9.35;;;3.67;;
71610;SDS011;59459;51.172;6.682;2022-09-13T09:12:51;8.40;;;4.30;;
71610;SDS011;59459;51.172;6.682;2022-09-13T09:15:19;8.30;;;3.92;;
71610;SDS011;59459;51.172;6.682;2022-09-13T09:20:25;11.73;;;3.77;;
71610;SDS011;59459;51.172;6.682;2022-09-13T09:22:51;9.13;;;4.25;;
71610;SDS011;59459;51.172;6.682;2022-09-13T09:25:17;7.65;;;3.88;;
71610;SDS011;59459;51.172;6.682;2022-09-13T09:27:44;9.53;;;4.50;;
71610;SDS011;59459;51.172;6.682;2022-09-13T09:30:11;9.03;;;4.33;;
71610;SDS011;59459;51.172;6.682;2022-09-13T09:33:01;8.65;;;3.80;;
71610;SDS011;59459;51.172;6.682;2022-09-13T09:38:23;9.15;;;4.05;;
71610;SDS011;59459;51.172;6.682;2022-09-13T09:40:51;10.55;;;3.60;;
71610;SDS011;59459;51.172;6.682;2022-09-13T09:43:28;8.90;;;4.37;;
71610;SDS011;59459;51.172;6.682;2022-09-13T09:45:57;8.15;;;3.78;;
71610;SDS011;59459;51.172;6.682;2022-09-13T09:48:25;10.68;;;4.47;;
71610;SDS011;59459;51.172;6.682;2022-09-13T09:50:55;8.20;;;4.40;;
71610;SDS011;59459;51.172;6.682;2022-09-13T09:53:30;8.33;;;4.17;;
71610;SDS011;59459;51.172;6.682;2022-09-13T09:55:59;11.80;;;4.72;;
71610;SDS011;59459;51.172;6.682;2022-09-13T10:01:00;9.77;;;5.07;;
71610;SDS011;59459;51.172;6.682;2022-09-13T10:03:30;10.30;;;4.93;;
71610;SDS011;59459;51.172;6.682;2022-09-13T10:08:32;9.77;;;4.43;;
71610;SDS011;59459;51.172;6.682;2022-09-13T10:10:57;9.13;;;3.95;;
71610;SDS011;59459;51.172;6.682;2022-09-13T10:13:24;6.88;;;3.55;;
71610;SDS011;59459;51.172;6.682;2022-09-13T10:15:56;10.83;;;4.80;;
71610;SDS011;59459;51.172;6.682;2022-09-13T10:18:22;10.82;;;4.40;;
71610;SDS011;59459;51.172;6.682;2022-09-13T10:21:49;9.98;;;5.05;;
71610;SDS011;59459;51.172;6.682;2022-09-13T10:23:43;11.05;;;4.80;;
71610;SDS011;59459;51.172;6.682;2022-09-13T10:28:35;9.47;;;4.40;;
71610;SDS011;59459;51.172;6.682;2022-09-13T10:31:02;10.77;;;4.57;;
71610;SDS011;59459;51.172;6.682;2022-09-13T10:35:54;9.10;;;4.23;;
71610;SDS011;59459;51.172;6.682;2022-09-13T10:38:25;9.10;;;4.43;;
71610;SDS011;59459;51.172;6.682;2022-09-13T10:40:51;10.98;;;4.32;;
71610;SDS011;59459;51.172;6.682;2022-09-13T10:43:16;8.17;;;4.63;;
71610;SDS011;59459;51.172;6.682;2022-09-13T10:45:44;11.05;;;4.70;;
71610;SDS011;59459;51.172;6.682;2022-09-13T10:48:13;7.20;;;3.50;;
71610;SDS011;59459;51.172;6.682;2022-09-13T10:50:39;7.38;;;4.13;;
71610;SDS011;59459;51.172;6.682;2022-09-13T10:53:07;6.82;;;3.90;;
71610;SDS011;59459;51.172;6.682;2022-09-13T10:55:53;6.63;;;3.13;;
71610;SDS011;59459;51.172;6.682;2022-09-13T10:58:19;8.63;;;3.63;;
71610;SDS011;59459;51.172;6.682;2022-09-13T11:18:54;9.50;;;4.37;;
71610;SDS011;59459;51.172;6.682;2022-09-13T11:21:41;7.30;;;4.35;;
71610;SDS011;59459;51.172;6.682;2022-09-13T11:26:51;7.00;;;3.30;;
71610;SDS011;59459;51.172;6.682;2022-09-13T11:34:15;9.00;;;4.10;;
71610;SDS011;59459;51.172;6.682;2022-09-13T11:44:16;11.57;;;4.68;;
71610;SDS011;59459;51.172;6.682;2022-09-13T11:46:58;8.50;;;4.15;;
71610;SDS011;59459;51.172;6.682;2022-09-13T11:52:02;10.02;;;4.35;;
71610;SDS011;59459;51.172;6.682;2022-09-13T11:57:31;8.75;;;4.45;;
71610;SDS011;59459;51.172;6.682;2022-09-13T12:00:02;8.30;;;4.53;;
71610;SDS011;59459;51.172;6.682;2022-09-13T12:02:51;10.27;;;4.60;;
71610;SDS011;59459;51.172;6.682;2022-09-13T12:10:06;9.43;;;4.63;;
71610;SDS011;59459;51.172;6.682;2022-09-13T12:12:37;8.40;;;5.38;;
71610;SDS011;59459;51.172;6.682;2022-09-13T12:17:36;8.37;;;5.60;;
71610;SDS011;59459;51.172;6.682;2022-09-13T12:20:04;8.75;;;5.18;;
71610;SDS011;59459;51.172;6.682;2022-09-13T12:22:31;7.28;;;4.97;;
71610;SDS011;59459;51.172;6.682;2022-09-13T12:24:58;6.95;;;4.15;;
71610;SDS011;59459;51.172;6.682;2022-09-13T12:27:30;8.00;;;4.78;;
71610;SDS011;59459;51.172;6.682;2022-09-13T12:32:29;6.75;;;4.88;;
71610;SDS011;59459;51.172;6.682;2022-09-13T12:37:35;7.17;;;4.20;;
71610;SDS011;59459;51.172;6.682;2022-09-13T12:43:42;7.72;;;3.72;;
71610;SDS011;59459;51.172;6.682;2022-09-13T12:45:39;7.05;;;3.95;;
71610;SDS011;59459;51.172;6.682;2022-09-13T12:53:28;5.87;;;3.53;;
71610;SDS011;59459;51.172;6.682;2022-09-13T13:01:02;7.57;;;3.67;;
71610;SDS011;59459;51.172;6.682;2022-09-13T13:03:30;6.70;;;4.10;;
71610;SDS011;59459;51.172;6.682;2022-09-13T13:06:08;6.93;;;3.75;;
71610;SDS011;59459;51.172;6.682;2022-09-13T13:08:35;5.63;;;3.80;;
71610;SDS011;59459;51.172;6.682;2022-09-13T13:11:07;6.93;;;3.80;;
71610;SDS011;59459;51.172;6.682;2022-09-13T13:13:41;6.47;;;4.25;;
71610;SDS011;59459;51.172;6.682;2022-09-13T13:16:26;7.18;;;4.20;;
71610;SDS011;59459;51.172;6.682;2022-09-13T13:18:53;7.47;;;4.60;;
71610;SDS011;59459;51.172;6.682;2022-09-13T13:26:49;6.70;;;3.58;;
71610;SDS011;59459;51.172;6.682;2022-09-13T13:29:20;9.95;;;3.65;;
71610;SDS011;59459;51.172;6.682;2022-09-13T13:36:47;7.37;;;3.37;;
71610;SDS011;59459;51.172;6.682;2022-09-13T13:57:23;8.45;;;2.92;;
71610;SDS011;59459;51.172;6.682;2022-09-13T13:59:50;4.80;;;2.33;;
71610;SDS011;59459;51.172;6.682;2022-09-13T14:02:18;4.77;;;2.40;;
71610;SDS011;59459;51.172;6.682;2022-09-13T14:07:33;5.97;;;3.00;;
71610;SDS011;59459;51.172;6.682;2022-09-13T14:10:05;6.95;;;2.67;;
71610;SDS011;59459;51.172;6.682;2022-09-13T14:20:14;6.63;;;3.10;;
71610;SDS011;59459;51.172;6.682;2022-09-13T14:22:41;6.18;;;3.17;;
71610;SDS011;59459;51.172;6.682;2022-09-13T14:27:43;6.75;;;3.00;;
71610;SDS011;59459;51.172;6.682;2022-09-13T14:32:53;6.50;;;3.17;;
71610;SDS011;59459;51.172;6.682;2022-09-13T14:37:50;7.38;;;2.97;;
71610;SDS011;59459;51.172;6.682;2022-09-13T14:42:42;6.93;;;3.20;;
71610;SDS011;59459;51.172;6.682;2022-09-13T14:45:11;9.27;;;3.75;;
71610;SDS011;59459;51.172;6.682;2022-09-13T14:47:42;7.13;;;3.28;;
71610;SDS011;59459;51.172;6.682;2022-09-13T14:50:29;5.77;;;2.87;;
71610;SDS011;59459;51.172;6.682;2022-09-13T14:52:57;8.55;;;3.60;;
71610;SDS011;59459;51.172;6.682;2022-09-13T14:55:27;6.30;;;3.13;;
71610;SDS011;59459;51.172;6.682;2022-09-13T14:57:55;5.45;;;3.10;;
71610;SDS011;59459;51.172;6.682;2022-09-13T15:00:23;5.60;;;2.30;;
71610;SDS011;59459;51.172;6.682;2022-09-13T15:02:56;6.73;;;2.57;;
71610;SDS011;59459;51.172;6.682;2022-09-13T15:05:24;5.88;;;2.83;;
71610;SDS011;59459;51.172;6.682;2022-09-13T15:07:50;8.00;;;3.00;;
71610;SDS011;59459;51.172;6.682;2022-09-13T15:12:55;5.53;;;2.78;;
71610;SDS011;59459;51.172;6.682;2022-09-13T15:20:23;5.63;;;3.10;;
71610;SDS011;59459;51.172;6.682;2022-09-13T15:22:49;6.30;;;3.10;;
71610;SDS011;59459;51.172;6.682;2022-09-13T15:25:27;6.65;;;3.10;;
71610;SDS011;59459;51.172;6.682;2022-09-13T15:27:53;7.38;;;2.88;;
71610;SDS011;59459;51.172;6.682;2022-09-13T15:32:47;5.75;;;2.78;;
71610;SDS011;59459;51.172;6.682;2022-09-13T15:37:56;6.70;;;3.27;;
71610;SDS011;59459;51.172;6.682;2022-09-13T15:40:22;6.15;;;3.00;;
71610;SDS011;59459;51.172;6.682;2022-09-13T15:42:48;6.23;;;3.20;;
71610;SDS011;59459;51.172;6.682;2022-09-13T15:45:14;7.55;;;3.10;;
71610;SDS011;59459;51.172;6.682;2022-09-13T15:47:39;6.78;;;3.40;;
71610;SDS011;59459;51.172;6.682;2022-09-13T15:50:05;6.77;;;3.17;;
71610;SDS011;59459;51.172;6.682;2022-09-13T15:52:30;5.80;;;3.30;;
71610;SDS011;59459;51.172;6.682;2022-09-13T15:54:56;6.72;;;3.42;;
71610;SDS011;59459;51.172;6.682;2022-09-13T15:57:22;6.07;;;3.33;;
71610;SDS011;59459;51.172;6.682;2022-09-13T15:59:48;7.18;;;3.33;;
71610;SDS011;59459;51.172;6.682;2022-09-13T16:02:17;8.37;;;2.90;;
71610;SDS011;59459;51.172;6.682;2022-09-13T16:04:43;7.05;;;3.15;;
71610;SDS011;59459;51.172;6.682;2022-09-13T16:07:08;5.93;;;3.23;;
71610;SDS011;59459;51.172;6.682;2022-09-13T16:09:33;7.50;;;3.33;;
71610;SDS011;59459;51.172;6.682;2022-09-13T16:11:59;7.50;;;3.23;;
71610;SDS011;59459;51.172;6.682;2022-09-13T16:14:24;6.47;;;3.27;;
71610;SDS011;59459;51.172;6.682;2022-09-13T16:16:49;6.13;;;3.13;;
71610;SDS011;59459;51.172;6.682;2022-09-13T16:19:16;6.82;;;3.00;;
71610;SDS011;59459;51.172;6.682;2022-09-13T16:21:41;6.85;;;3.13;;
71610;SDS011;59459;51.172;6.682;2022-09-13T16:24:07;6.23;;;3.13;;
71610;SDS011;59459;51.172;6.682;2022-09-13T16:26:32;7.63;;;3.50;;
71610;SDS011;59459;51.172;6.682;2022-09-13T16:28:58;6.03;;;3.73;;
71610;SDS011;59459;51.172;6.682;2022-09-13T16:31:23;7.87;;;3.80;;
71610;SDS011;59459;51.172;6.682;2022-09-13T16:33:48;6.70;;;3.77;;
71610;SDS011;59459;51.172;6.682;2022-09-13T16:36:13;9.70;;;5.13;;
71610;SDS011;59459;51.172;6.682;2022-09-13T16:38:39;11.57;;;4.90;;
71610;SDS011;59459;51.172;6.682;2022-09-13T16:41:04;8.93;;;4.30;;
71610;SDS011;59459;51.172;6.682;2022-09-13T16:43:30;10.67;;;4.93;;
71610;SDS011;59459;51.172;6.682;2022-09-13T16:45:57;9.83;;;5.17;;
71610;SDS011;59459;51.172;6.682;2022-09-13T16:48:22;9.53;;;5.50;;
71610;SDS011;59459;51.172;6.682;2022-09-13T16:50:47;9.97;;;6.43;;
71610;SDS011;59459;51.172;6.682;2022-09-13T16:53:12;10.80;;;5.63;;
71610;SDS011;59459;51.172;6.682;2022-09-13T16:55:38;10.80;;;5.63;;
71610;SDS011;59459;51.172;6.682;2022-09-13T16:58:03;10.60;;;5.50;;
71610;SDS011;59459;51.172;6.682;2022-09-13T17:00:28;11.20;;;5.73;;
71610;SDS011;59459;51.172;6.682;2022-09-13T17:02:54;12.50;;;6.50;;
71610;SDS011;59459;51.172;6.682;2022-09-13T17:05:20;10.50;;;6.10;;
71610;SDS011;59459;51.172;6.682;2022-09-13T17:07:45;11.90;;;6.10;;
71610;SDS011;59459;51.172;6.682;2022-09-13T17:10:10;9.73;;;5.80;;
71610;SDS011;59459;51.172;6.682;2022-09-13T17:12:36;10.77;;;5.93;;
71610;SDS011;59459;51.172;6.682;2022-09-13T17:15:02;10.37;;;5.93;;
71610;SDS011;59459;51.172;6.682;2022-09-13T17:17:27;12.27;;;6.53;;
71610;SDS011;59459;51.172;6.682;2022-09-13T17:19:57;11.73;;;6.55;;
71610;SDS011;59459;51.172;6.682;2022-09-13T17:22:23;12.00;;;6.78;;
71610;SDS011;59459;51.172;6.682;2022-09-13T17:24:48;11.63;;;6.30;;
71610;SDS011;59459;51.172;6.682;2022-09-13T17:27:13;12.23;;;7.87;;
71610;SDS011;59459;51.172;6.682;2022-09-13T17:29:38;13.57;;;7.43;;
71610;SDS011;59459;51.172;6.682;2022-09-13T17:32:04;11.87;;;7.23;;
71610;SDS011;59459;51.172;6.682;2022-09-13T17:34:29;12.23;;;7.10;;
71610;SDS011;59459;51.172;6.682;2022-09-13T17:36:56;10.75;;;6.97;;
71610;SDS011;59459;51.172;6.682;2022-09-13T17:39:21;12.23;;;6.67;;
71610;SDS011;59459;51.172;6.682;2022-09-13T17:41:46;13.17;;;7.17;;
71610;SDS011;59459;51.172;6.682;2022-09-13T17:44:15;11.25;;;7.32;;
71610;SDS011;59459;51.172;6.682;2022-09-13T17:46:40;10.27;;;6.57;;
71610;SDS011;59459;51.172;6.682;2022-09-13T17:49:06;10.40;;;6.60;;
71610;SDS011;59459;51.172;6.682;2022-09-13T17:51:31;11.17;;;6.97;;
71610;SDS011;59459;51.172;6.682;2022-09-13T17:53:57;13.65;;;7.72;;
71610;SDS011;59459;51.172;6.682;2022-09-13T17:56:25;13.52;;;7.93;;
71610;SDS011;59459;51.172;6.682;2022-09-13T17:58:53;13.20;;;7.43;;
71610;SDS011;59459;51.172;6.682;2022-09-13T18:01:18;12.38;;;7.45;;
71610;SDS011;59459;51.172;6.682;2022-09-13T18:03:44;12.93;;;6.67;;
71610;SDS011;59459;51.172;6.682;2022-09-13T18:06:10;12.30;;;7.13;;
71610;SDS011;59459;51.172;6.682;2022-09-13T18:08:36;12.50;;;7.78;;